sensor_id;sensor_type;location;lat;lon;timestamp;P1;durP1;ratioP1;P2;durP2;ratioP2
2898;SDS011;1459;50.864;6.438;2022-09-09T00:01:16;1.67;;;0.90;;
2898;SDS011;1459;50.864;6.438;2022-09-09T00:03:53;1.15;;;0.98;;
2898;SDS011;1459;50.864;6.438;2022-09-09T00:06:24;4.13;;;0.90;;
2898;SDS011;1459;50.864;6.438;2022-09-09T00:09:01;1.60;;;1.00;;
2898;SDS011;1459;50.864;6.438;2022-09-09T00:11:36;2.40;;;0.98;;
2898;SDS011;1459;50.864;6.438;2022-09-09T00:14:11;1.65;;;1.00;;
2898;SDS011;1459;50.864;6.438;2022-09-09T00:16:46;1.90;;;0.90;;
2898;SDS011;1459;50.864;6.438;2022-09-09T00:19:20;2.17;;;0.98;;
2898;SDS011;1459;50.864;6.438;2022-09-09T00:21:53;1.65;;;0.95;;
2898;SDS011;1459;50.864;6.438;2022-09-09T00:24:27;5.28;;;1.10;;
2898;SDS011;1459;50.864;6.438;2022-09-09T00:27:04;3.05;;;1.35;;
2898;SDS011;1459;50.864;6.438;2022-09-09T00:29:35;2.50;;;1.13;;
2898;SDS011;1459;50.864;6.438;2022-09-09T00:32:11;1.60;;;1.17;;
2898;SDS011;1459;50.864;6.438;2022-09-09T00:34:39;1.10;;;1.00;;
2898;SDS011;1459;50.864;6.438;2022-09-09T00:37:14;2.92;;;1.25;;
2898;SDS011;1459;50.864;6.438;2022-09-09T00:39:42;2.63;;;1.00;;
2898;SDS011;1459;50.864;6.438;2022-09-09T00:42:15;3.20;;;1.00;;
2898;SDS011;1459;50.864;6.438;2022-09-09T00:44:52;2.38;;;1.17;;
2898;SDS011;1459;50.864;6.438;2022-09-09T00:47:43;2.58;;;1.10;;
2898;SDS011;1459;50.864;6.438;2022-09-09T00:53:12;2.67;;;1.08;;
2898;SDS011;1459;50.864;6.438;2022-09-09T00:55:48;2.80;;;1.10;;
2898;SDS011;1459;50.864;6.438;2022-09-09T00:58:21;1.38;;;1.10;;
2898;SDS011;1459;50.864;6.438;2022-09-09T01:00:50;7.00;;;1.40;;
2898;SDS011;1459;50.864;6.438;2022-09-09T01:03:22;2.30;;;1.20;;
2898;SDS011;1459;50.864;6.438;2022-09-09T01:06:00;4.97;;;1.50;;
2898;SDS011;1459;50.864;6.438;2022-09-09T01:11:41;3.80;;;1.17;;
2898;SDS011;1459;50.864;6.438;2022-09-09T01:14:20;3.75;;;1.42;;
2898;SDS011;1459;50.864;6.438;2022-09-09T01:17:08;4.80;;;1.40;;
2898;SDS011;1459;50.864;6.438;2022-09-09T01:19:45;3.72;;;1.25;;
2898;SDS011;1459;50.864;6.438;2022-09-09T01:22:24;2.40;;;1.20;;
2898;SDS011;1459;50.864;6.438;2022-09-09T01:25:07;1.65;;;1.23;;
2898;SDS011;1459;50.864;6.438;2022-09-09T01:27:56;3.28;;;1.20;;
2898;SDS011;1459;50.864;6.438;2022-09-09T01:30:26;3.00;;;1.70;;
2898;SDS011;1459;50.864;6.438;2022-09-09T01:32:56;3.33;;;1.45;;
2898;SDS011;1459;50.864;6.438;2022-09-09T01:35:40;4.78;;;1.70;;
2898;SDS011;1459;50.864;6.438;2022-09-09T01:38:13;4.00;;;1.75;;
2898;SDS011;1459;50.864;6.438;2022-09-09T01:40:41;4.18;;;1.70;;
2898;SDS011;1459;50.864;6.438;2022-09-09T01:43:10;2.92;;;1.45;;
2898;SDS011;1459;50.864;6.438;2022-09-09T01:45:37;4.28;;;2.00;;
2898;SDS011;1459;50.864;6.438;2022-09-09T01:48:06;3.83;;;1.90;;
2898;SDS011;1459;50.864;6.438;2022-09-09T01:50:34;3.10;;;1.60;;
2898;SDS011;1459;50.864;6.438;2022-09-09T01:53:01;3.78;;;1.50;;
2898;SDS011;1459;50.864;6.438;2022-09-09T01:55:29;4.05;;;1.70;;
2898;SDS011;1459;50.864;6.438;2022-09-09T01:58:03;5.85;;;1.90;;
2898;SDS011;1459;50.864;6.438;2022-09-09T02:00:42;3.58;;;1.40;;
2898;SDS011;1459;50.864;6.438;2022-09-09T02:03:15;3.55;;;1.50;;
2898;SDS011;1459;50.864;6.438;2022-09-09T02:05:51;5.13;;;2.25;;
2898;SDS011;1459;50.864;6.438;2022-09-09T02:08:29;5.28;;;2.10;;
2898;SDS011;1459;50.864;6.438;2022-09-09T02:11:06;5.88;;;1.63;;
2898;SDS011;1459;50.864;6.438;2022-09-09T02:13:39;3.17;;;1.85;;
2898;SDS011;1459;50.864;6.438;2022-09-09T02:16:07;2.65;;;1.80;;
2898;SDS011;1459;50.864;6.438;2022-09-09T02:18:38;1.88;;;1.42;;
2898;SDS011;1459;50.864;6.438;2022-09-09T02:21:12;5.97;;;1.92;;
2898;SDS011;1459;50.864;6.438;2022-09-09T02:23:40;3.83;;;1.70;;
2898;SDS011;1459;50.864;6.438;2022-09-09T02:26:09;7.28;;;2.15;;
2898;SDS011;1459;50.864;6.438;2022-09-09T02:28:41;5.57;;;1.83;;
2898;SDS011;1459;50.864;6.438;2022-09-09T02:31:08;7.18;;;2.00;;
2898;SDS011;1459;50.864;6.438;2022-09-09T02:33:37;3.83;;;1.90;;
2898;SDS011;1459;50.864;6.438;2022-09-09T02:36:08;7.03;;;1.83;;
2898;SDS011;1459;50.864;6.438;2022-09-09T02:38:38;2.97;;;1.90;;
2898;SDS011;1459;50.864;6.438;2022-09-09T02:41:08;2.60;;;1.83;;
2898;SDS011;1459;50.864;6.438;2022-09-09T02:43:36;4.25;;;2.33;;
2898;SDS011;1459;50.864;6.438;2022-09-09T02:46:07;5.35;;;2.35;;
2898;SDS011;1459;50.864;6.438;2022-09-09T02:48:45;7.10;;;2.63;;
2898;SDS011;1459;50.864;6.438;2022-09-09T02:51:19;7.15;;;2.20;;
2898;SDS011;1459;50.864;6.438;2022-09-09T02:53:53;6.93;;;2.92;;
2898;SDS011;1459;50.864;6.438;2022-09-09T02:56:27;10.10;;;3.28;;
2898;SDS011;1459;50.864;6.438;2022-09-09T02:59:02;7.55;;;3.20;;
2898;SDS011;1459;50.864;6.438;2022-09-09T03:01:31;8.10;;;4.25;;
2898;SDS011;1459;50.864;6.438;2022-09-09T03:03:58;9.40;;;3.70;;
2898;SDS011;1459;50.864;6.438;2022-09-09T03:06:25;7.35;;;3.47;;
2898;SDS011;1459;50.864;6.438;2022-09-09T03:08:53;9.10;;;4.75;;
2898;SDS011;1459;50.864;6.438;2022-09-09T03:11:25;10.75;;;4.22;;
2898;SDS011;1459;50.864;6.438;2022-09-09T03:13:55;6.93;;;4.15;;
2898;SDS011;1459;50.864;6.438;2022-09-09T03:16:22;11.10;;;4.50;;
2898;SDS011;1459;50.864;6.438;2022-09-09T03:18:51;7.57;;;4.25;;
2898;SDS011;1459;50.864;6.438;2022-09-09T03:21:18;8.85;;;4.28;;
2898;SDS011;1459;50.864;6.438;2022-09-09T03:23:45;8.05;;;3.95;;
2898;SDS011;1459;50.864;6.438;2022-09-09T03:26:12;6.20;;;3.42;;
2898;SDS011;1459;50.864;6.438;2022-09-09T03:28:40;3.92;;;2.67;;
2898;SDS011;1459;50.864;6.438;2022-09-09T03:31:07;4.60;;;3.20;;
2898;SDS011;1459;50.864;6.438;2022-09-09T03:33:35;6.15;;;2.80;;
2898;SDS011;1459;50.864;6.438;2022-09-09T03:36:04;5.95;;;2.65;;
2898;SDS011;1459;50.864;6.438;2022-09-09T03:38:32;7.20;;;3.30;;
2898;SDS011;1459;50.864;6.438;2022-09-09T03:41:00;4.13;;;2.30;;
2898;SDS011;1459;50.864;6.438;2022-09-09T03:43:27;2.55;;;2.35;;
2898;SDS011;1459;50.864;6.438;2022-09-09T03:45:55;4.50;;;2.55;;
2898;SDS011;1459;50.864;6.438;2022-09-09T03:48:23;7.18;;;2.28;;
2898;SDS011;1459;50.864;6.438;2022-09-09T03:50:51;7.47;;;2.50;;
2898;SDS011;1459;50.864;6.438;2022-09-09T03:53:21;6.18;;;2.47;;
2898;SDS011;1459;50.864;6.438;2022-09-09T03:55:51;6.20;;;2.50;;
2898;SDS011;1459;50.864;6.438;2022-09-09T03:58:21;5.32;;;2.08;;
2898;SDS011;1459;50.864;6.438;2022-09-09T04:00:59;10.07;;;2.83;;
2898;SDS011;1459;50.864;6.438;2022-09-09T04:03:27;3.15;;;1.98;;
2898;SDS011;1459;50.864;6.438;2022-09-09T04:05:55;6.10;;;2.22;;
2898;SDS011;1459;50.864;6.438;2022-09-09T04:08:25;5.82;;;2.10;;
2898;SDS011;1459;50.864;6.438;2022-09-09T04:10:52;5.47;;;2.15;;
2898;SDS011;1459;50.864;6.438;2022-09-09T04:13:22;7.38;;;2.47;;
2898;SDS011;1459;50.864;6.438;2022-09-09T04:15:50;6.47;;;2.58;;
2898;SDS011;1459;50.864;6.438;2022-09-09T04:18:18;5.95;;;2.20;;
2898;SDS011;1459;50.864;6.438;2022-09-09T04:20:46;5.43;;;2.30;;
2898;SDS011;1459;50.864;6.438;2022-09-09T04:23:14;3.70;;;2.05;;
2898;SDS011;1459;50.864;6.438;2022-09-09T04:25:44;4.07;;;2.00;;
2898;SDS011;1459;50.864;6.438;2022-09-09T04:28:12;5.10;;;2.20;;
2898;SDS011;1459;50.864;6.438;2022-09-09T04:30:39;6.00;;;1.95;;
2898;SDS011;1459;50.864;6.438;2022-09-09T04:33:06;6.13;;;2.40;;
2898;SDS011;1459;50.864;6.438;2022-09-09T04:35:37;5.13;;;2.05;;
2898;SDS011;1459;50.864;6.438;2022-09-09T04:38:05;4.45;;;2.50;;
2898;SDS011;1459;50.864;6.438;2022-09-09T04:40:34;5.60;;;2.05;;
2898;SDS011;1459;50.864;6.438;2022-09-09T04:43:03;4.00;;;2.05;;
2898;SDS011;1459;50.864;6.438;2022-09-09T04:45:30;4.35;;;2.03;;
2898;SDS011;1459;50.864;6.438;2022-09-09T04:47:58;4.20;;;2.28;;
2898;SDS011;1459;50.864;6.438;2022-09-09T04:50:25;3.25;;;1.88;;
2898;SDS011;1459;50.864;6.438;2022-09-09T04:52:53;6.68;;;2.15;;
2898;SDS011;1459;50.864;6.438;2022-09-09T04:55:20;7.30;;;2.55;;
2898;SDS011;1459;50.864;6.438;2022-09-09T04:57:47;5.35;;;2.10;;
2898;SDS011;1459;50.864;6.438;2022-09-09T05:00:16;9.23;;;2.45;;
2898;SDS011;1459;50.864;6.438;2022-09-09T05:02:43;4.57;;;2.60;;
2898;SDS011;1459;50.864;6.438;2022-09-09T05:05:11;7.30;;;2.70;;
2898;SDS011;1459;50.864;6.438;2022-09-09T05:07:38;5.45;;;2.05;;
2898;SDS011;1459;50.864;6.438;2022-09-09T05:10:05;8.27;;;2.70;;
2898;SDS011;1459;50.864;6.438;2022-09-09T05:12:33;7.80;;;2.38;;
2898;SDS011;1459;50.864;6.438;2022-09-09T05:15:00;4.00;;;2.25;;
2898;SDS011;1459;50.864;6.438;2022-09-09T05:17:28;4.80;;;2.40;;
2898;SDS011;1459;50.864;6.438;2022-09-09T05:19:55;6.47;;;2.42;;
2898;SDS011;1459;50.864;6.438;2022-09-09T05:22:22;5.35;;;1.70;;
2898;SDS011;1459;50.864;6.438;2022-09-09T05:24:49;4.85;;;1.65;;
2898;SDS011;1459;50.864;6.438;2022-09-09T05:27:17;4.00;;;2.10;;
2898;SDS011;1459;50.864;6.438;2022-09-09T05:29:44;6.25;;;2.10;;
2898;SDS011;1459;50.864;6.438;2022-09-09T05:32:11;6.57;;;2.05;;
2898;SDS011;1459;50.864;6.438;2022-09-09T05:34:41;5.10;;;2.13;;
2898;SDS011;1459;50.864;6.438;2022-09-09T05:37:08;4.03;;;1.95;;
2898;SDS011;1459;50.864;6.438;2022-09-09T05:39:35;3.97;;;1.77;;
2898;SDS011;1459;50.864;6.438;2022-09-09T05:42:05;6.35;;;2.25;;
2898;SDS011;1459;50.864;6.438;2022-09-09T05:44:32;5.60;;;1.98;;
2898;SDS011;1459;50.864;6.438;2022-09-09T05:46:59;3.35;;;1.52;;
2898;SDS011;1459;50.864;6.438;2022-09-09T05:49:27;7.47;;;1.88;;
2898;SDS011;1459;50.864;6.438;2022-09-09T05:51:56;4.68;;;1.42;;
2898;SDS011;1459;50.864;6.438;2022-09-09T05:54:23;2.83;;;1.40;;
2898;SDS011;1459;50.864;6.438;2022-09-09T05:56:50;3.38;;;1.45;;
2898;SDS011;1459;50.864;6.438;2022-09-09T05:59:18;6.20;;;1.52;;
2898;SDS011;1459;50.864;6.438;2022-09-09T06:01:45;4.20;;;2.25;;
2898;SDS011;1459;50.864;6.438;2022-09-09T06:04:12;5.10;;;1.30;;
2898;SDS011;1459;50.864;6.438;2022-09-09T06:06:40;5.93;;;2.35;;
2898;SDS011;1459;50.864;6.438;2022-09-09T06:09:09;4.35;;;1.67;;
2898;SDS011;1459;50.864;6.438;2022-09-09T06:11:37;6.97;;;2.00;;
2898;SDS011;1459;50.864;6.438;2022-09-09T06:14:05;5.18;;;1.40;;
2898;SDS011;1459;50.864;6.438;2022-09-09T06:16:34;5.15;;;1.67;;
2898;SDS011;1459;50.864;6.438;2022-09-09T06:19:03;5.07;;;1.70;;
2898;SDS011;1459;50.864;6.438;2022-09-09T06:21:31;2.72;;;1.40;;
2898;SDS011;1459;50.864;6.438;2022-09-09T06:24:01;3.65;;;1.48;;
2898;SDS011;1459;50.864;6.438;2022-09-09T06:26:30;3.55;;;1.70;;
2898;SDS011;1459;50.864;6.438;2022-09-09T06:29:00;2.42;;;1.25;;
2898;SDS011;1459;50.864;6.438;2022-09-09T06:31:29;7.13;;;1.65;;
2898;SDS011;1459;50.864;6.438;2022-09-09T06:33:57;4.28;;;2.00;;
2898;SDS011;1459;50.864;6.438;2022-09-09T06:36:25;2.92;;;1.35;;
2898;SDS011;1459;50.864;6.438;2022-09-09T06:38:57;4.22;;;1.70;;
2898;SDS011;1459;50.864;6.438;2022-09-09T06:41:25;5.65;;;1.75;;
2898;SDS011;1459;50.864;6.438;2022-09-09T06:43:54;5.47;;;1.58;;
2898;SDS011;1459;50.864;6.438;2022-09-09T06:46:22;5.82;;;2.00;;
2898;SDS011;1459;50.864;6.438;2022-09-09T06:48:52;4.45;;;1.70;;
2898;SDS011;1459;50.864;6.438;2022-09-09T06:51:21;5.10;;;1.60;;
2898;SDS011;1459;50.864;6.438;2022-09-09T06:53:51;4.80;;;2.72;;
2898;SDS011;1459;50.864;6.438;2022-09-09T06:56:20;4.65;;;1.90;;
2898;SDS011;1459;50.864;6.438;2022-09-09T06:58:49;4.30;;;1.38;;
2898;SDS011;1459;50.864;6.438;2022-09-09T07:01:18;2.85;;;1.50;;
2898;SDS011;1459;50.864;6.438;2022-09-09T07:03:47;6.45;;;1.80;;
2898;SDS011;1459;50.864;6.438;2022-09-09T07:06:16;5.72;;;1.70;;
2898;SDS011;1459;50.864;6.438;2022-09-09T07:08:47;5.75;;;1.90;;
2898;SDS011;1459;50.864;6.438;2022-09-09T07:11:15;4.28;;;2.15;;
2898;SDS011;1459;50.864;6.438;2022-09-09T07:13:43;4.50;;;1.50;;
2898;SDS011;1459;50.864;6.438;2022-09-09T07:16:10;4.45;;;1.35;;
2898;SDS011;1459;50.864;6.438;2022-09-09T07:18:40;6.72;;;1.90;;
2898;SDS011;1459;50.864;6.438;2022-09-09T07:21:08;3.97;;;1.95;;
2898;SDS011;1459;50.864;6.438;2022-09-09T07:23:37;8.95;;;2.33;;
2898;SDS011;1459;50.864;6.438;2022-09-09T07:26:07;10.55;;;2.42;;
2898;SDS011;1459;50.864;6.438;2022-09-09T07:28:34;5.68;;;1.35;;
2898;SDS011;1459;50.864;6.438;2022-09-09T07:31:02;7.97;;;1.90;;
2898;SDS011;1459;50.864;6.438;2022-09-09T07:33:29;5.18;;;1.45;;
2898;SDS011;1459;50.864;6.438;2022-09-09T07:36:03;8.95;;;1.60;;
2898;SDS011;1459;50.864;6.438;2022-09-09T07:38:30;6.65;;;1.30;;
2898;SDS011;1459;50.864;6.438;2022-09-09T07:41:02;6.90;;;1.65;;
2898;SDS011;1459;50.864;6.438;2022-09-09T07:43:30;2.63;;;1.33;;
2898;SDS011;1459;50.864;6.438;2022-09-09T07:45:58;3.63;;;1.23;;
2898;SDS011;1459;50.864;6.438;2022-09-09T07:48:26;3.70;;;1.17;;
2898;SDS011;1459;50.864;6.438;2022-09-09T07:51:03;6.25;;;1.40;;
2898;SDS011;1459;50.864;6.438;2022-09-09T07:53:36;8.73;;;2.13;;
2898;SDS011;1459;50.864;6.438;2022-09-09T07:56:05;5.97;;;1.50;;
2898;SDS011;1459;50.864;6.438;2022-09-09T07:58:34;4.82;;;1.20;;
2898;SDS011;1459;50.864;6.438;2022-09-09T08:01:05;4.22;;;1.42;;
2898;SDS011;1459;50.864;6.438;2022-09-09T08:03:34;8.45;;;1.80;;
2898;SDS011;1459;50.864;6.438;2022-09-09T08:06:01;4.30;;;1.40;;
2898;SDS011;1459;50.864;6.438;2022-09-09T08:08:31;5.80;;;1.73;;
2898;SDS011;1459;50.864;6.438;2022-09-09T08:11:02;3.92;;;1.30;;
2898;SDS011;1459;50.864;6.438;2022-09-09T08:13:30;3.08;;;1.65;;
2898;SDS011;1459;50.864;6.438;2022-09-09T08:16:03;5.47;;;1.80;;
2898;SDS011;1459;50.864;6.438;2022-09-09T08:18:32;4.18;;;1.58;;
2898;SDS011;1459;50.864;6.438;2022-09-09T08:21:06;3.55;;;1.20;;
2898;SDS011;1459;50.864;6.438;2022-09-09T08:23:34;5.13;;;1.67;;
2898;SDS011;1459;50.864;6.438;2022-09-09T08:26:05;2.63;;;1.20;;
2898;SDS011;1459;50.864;6.438;2022-09-09T08:28:34;4.28;;;1.40;;
2898;SDS011;1459;50.864;6.438;2022-09-09T08:31:05;6.80;;;1.35;;
2898;SDS011;1459;50.864;6.438;2022-09-09T08:33:33;1.83;;;1.13;;
2898;SDS011;1459;50.864;6.438;2022-09-09T08:36:01;3.10;;;1.25;;
2898;SDS011;1459;50.864;6.438;2022-09-09T08:38:30;3.40;;;1.20;;
2898;SDS011;1459;50.864;6.438;2022-09-09T08:40:58;3.72;;;1.48;;
2898;SDS011;1459;50.864;6.438;2022-09-09T08:43:33;3.92;;;1.35;;
2898;SDS011;1459;50.864;6.438;2022-09-09T08:46:05;3.28;;;1.08;;
2898;SDS011;1459;50.864;6.438;2022-09-09T08:48:44;4.88;;;1.45;;
2898;SDS011;1459;50.864;6.438;2022-09-09T08:51:19;3.92;;;1.55;;
2898;SDS011;1459;50.864;6.438;2022-09-09T08:53:48;6.60;;;1.67;;
2898;SDS011;1459;50.864;6.438;2022-09-09T08:56:18;3.70;;;1.42;;
2898;SDS011;1459;50.864;6.438;2022-09-09T08:58:48;5.22;;;1.70;;
2898;SDS011;1459;50.864;6.438;2022-09-09T09:01:19;6.75;;;2.30;;
2898;SDS011;1459;50.864;6.438;2022-09-09T09:04:05;4.20;;;1.20;;
2898;SDS011;1459;50.864;6.438;2022-09-09T09:06:43;4.43;;;1.10;;
2898;SDS011;1459;50.864;6.438;2022-09-09T09:09:18;4.35;;;1.30;;
2898;SDS011;1459;50.864;6.438;2022-09-09T09:11:53;1.83;;;1.00;;
2898;SDS011;1459;50.864;6.438;2022-09-09T09:14:26;7.15;;;1.30;;
2898;SDS011;1459;50.864;6.438;2022-09-09T09:16:56;3.33;;;1.50;;
2898;SDS011;1459;50.864;6.438;2022-09-09T09:19:26;6.85;;;1.70;;
2898;SDS011;1459;50.864;6.438;2022-09-09T09:21:57;5.63;;;1.45;;
2898;SDS011;1459;50.864;6.438;2022-09-09T09:24:34;5.28;;;1.50;;
2898;SDS011;1459;50.864;6.438;2022-09-09T09:27:08;4.22;;;1.20;;
2898;SDS011;1459;50.864;6.438;2022-09-09T09:29:39;2.17;;;0.85;;
2898;SDS011;1459;50.864;6.438;2022-09-09T09:32:10;3.63;;;1.30;;
2898;SDS011;1459;50.864;6.438;2022-09-09T09:34:40;3.25;;;1.10;;
2898;SDS011;1459;50.864;6.438;2022-09-09T09:37:11;3.17;;;1.13;;
2898;SDS011;1459;50.864;6.438;2022-09-09T09:39:45;4.13;;;1.40;;
2898;SDS011;1459;50.864;6.438;2022-09-09T09:42:15;2.78;;;1.05;;
2898;SDS011;1459;50.864;6.438;2022-09-09T09:44:43;4.80;;;1.10;;
2898;SDS011;1459;50.864;6.438;2022-09-09T09:47:11;4.20;;;1.40;;
2898;SDS011;1459;50.864;6.438;2022-09-09T09:49:40;1.88;;;0.80;;
2898;SDS011;1459;50.864;6.438;2022-09-09T09:52:20;3.35;;;0.90;;
2898;SDS011;1459;50.864;6.438;2022-09-09T09:54:51;2.67;;;1.27;;
2898;SDS011;1459;50.864;6.438;2022-09-09T09:57:22;2.95;;;1.05;;
2898;SDS011;1459;50.864;6.438;2022-09-09T10:00:00;2.65;;;1.00;;
2898;SDS011;1459;50.864;6.438;2022-09-09T10:02:31;3.85;;;1.35;;
2898;SDS011;1459;50.864;6.438;2022-09-09T10:05:06;2.95;;;0.90;;
2898;SDS011;1459;50.864;6.438;2022-09-09T10:07:39;3.13;;;1.02;;
2898;SDS011;1459;50.864;6.438;2022-09-09T10:10:12;4.53;;;1.52;;
2898;SDS011;1459;50.864;6.438;2022-09-09T10:12:49;3.83;;;1.52;;
2898;SDS011;1459;50.864;6.438;2022-09-09T10:15:29;3.25;;;0.82;;
2898;SDS011;1459;50.864;6.438;2022-09-09T10:18:06;4.15;;;1.10;;
2898;SDS011;1459;50.864;6.438;2022-09-09T10:20:45;2.20;;;1.05;;
2898;SDS011;1459;50.864;6.438;2022-09-09T10:23:23;6.18;;;1.65;;
2898;SDS011;1459;50.864;6.438;2022-09-09T10:26:05;7.40;;;1.50;;
2898;SDS011;1459;50.864;6.438;2022-09-09T10:31:37;1.48;;;0.82;;
2898;SDS011;1459;50.864;6.438;2022-09-09T10:34:16;2.72;;;1.10;;
2898;SDS011;1459;50.864;6.438;2022-09-09T10:37:03;6.32;;;1.00;;
2898;SDS011;1459;50.864;6.438;2022-09-09T10:39:41;1.80;;;0.98;;
2898;SDS011;1459;50.864;6.438;2022-09-09T10:42:11;3.50;;;1.05;;
2898;SDS011;1459;50.864;6.438;2022-09-09T10:44:49;4.40;;;1.17;;
2898;SDS011;1459;50.864;6.438;2022-09-09T10:47:40;2.97;;;1.45;;
2898;SDS011;1459;50.864;6.438;2022-09-09T10:50:33;3.38;;;1.00;;
2898;SDS011;1459;50.864;6.438;2022-09-09T10:53:22;2.45;;;1.27;;
2898;SDS011;1459;50.864;6.438;2022-09-09T10:55:57;4.72;;;0.90;;
2898;SDS011;1459;50.864;6.438;2022-09-09T10:58:31;3.42;;;1.15;;
2898;SDS011;1459;50.864;6.438;2022-09-09T11:01:09;3.90;;;1.75;;
2898;SDS011;1459;50.864;6.438;2022-09-09T11:03:42;2.85;;;1.45;;
2898;SDS011;1459;50.864;6.438;2022-09-09T11:06:16;6.53;;;1.33;;
2898;SDS011;1459;50.864;6.438;2022-09-09T11:08:44;6.45;;;1.50;;
2898;SDS011;1459;50.864;6.438;2022-09-09T11:11:15;3.33;;;1.33;;
2898;SDS011;1459;50.864;6.438;2022-09-09T11:13:47;3.03;;;1.00;;
2898;SDS011;1459;50.864;6.438;2022-09-09T11:16:22;3.58;;;1.10;;
2898;SDS011;1459;50.864;6.438;2022-09-09T11:18:55;4.22;;;1.50;;
2898;SDS011;1459;50.864;6.438;2022-09-09T11:21:27;4.05;;;1.20;;
2898;SDS011;1459;50.864;6.438;2022-09-09T11:23:59;3.25;;;1.10;;
2898;SDS011;1459;50.864;6.438;2022-09-09T11:26:30;3.20;;;2.10;;
2898;SDS011;1459;50.864;6.438;2022-09-09T11:32:28;2.50;;;0.90;;
2898;SDS011;1459;50.864;6.438;2022-09-09T11:35:20;2.92;;;1.10;;
2898;SDS011;1459;50.864;6.438;2022-09-09T11:38:02;3.70;;;1.42;;
2898;SDS011;1459;50.864;6.438;2022-09-09T11:40:46;2.25;;;0.90;;
2898;SDS011;1459;50.864;6.438;2022-09-09T11:43:22;3.35;;;1.27;;
2898;SDS011;1459;50.864;6.438;2022-09-09T11:45:54;3.90;;;1.10;;
2898;SDS011;1459;50.864;6.438;2022-09-09T11:48:29;2.60;;;1.40;;
2898;SDS011;1459;50.864;6.438;2022-09-09T11:51:05;3.95;;;1.58;;
2898;SDS011;1459;50.864;6.438;2022-09-09T11:53:34;2.58;;;1.52;;
2898;SDS011;1459;50.864;6.438;2022-09-09T11:56:03;2.20;;;1.13;;
2898;SDS011;1459;50.864;6.438;2022-09-09T11:58:42;2.78;;;0.90;;
2898;SDS011;1459;50.864;6.438;2022-09-09T12:01:27;7.05;;;1.60;;
2898;SDS011;1459;50.864;6.438;2022-09-09T12:06:55;3.33;;;1.40;;
2898;SDS011;1459;50.864;6.438;2022-09-09T12:09:27;4.00;;;1.38;;
2898;SDS011;1459;50.864;6.438;2022-09-09T12:12:05;4.57;;;1.40;;
2898;SDS011;1459;50.864;6.438;2022-09-09T12:14:38;4.32;;;1.60;;
2898;SDS011;1459;50.864;6.438;2022-09-09T12:17:15;2.88;;;1.67;;
2898;SDS011;1459;50.864;6.438;2022-09-09T12:19:46;4.30;;;1.60;;
2898;SDS011;1459;50.864;6.438;2022-09-09T12:22:16;2.88;;;1.60;;
2898;SDS011;1459;50.864;6.438;2022-09-09T12:24:52;2.03;;;1.50;;
2898;SDS011;1459;50.864;6.438;2022-09-09T12:27:27;2.97;;;1.33;;
2898;SDS011;1459;50.864;6.438;2022-09-09T12:29:59;3.95;;;1.40;;
2898;SDS011;1459;50.864;6.438;2022-09-09T12:32:31;3.70;;;1.30;;
2898;SDS011;1459;50.864;6.438;2022-09-09T12:34:58;2.90;;;1.15;;
2898;SDS011;1459;50.864;6.438;2022-09-09T12:37:31;3.33;;;1.10;;
2898;SDS011;1459;50.864;6.438;2022-09-09T12:40:03;2.05;;;1.13;;
2898;SDS011;1459;50.864;6.438;2022-09-09T12:42:31;3.65;;;1.52;;
2898;SDS011;1459;50.864;6.438;2022-09-09T12:44:59;3.15;;;1.05;;
2898;SDS011;1459;50.864;6.438;2022-09-09T12:47:35;3.45;;;1.33;;
2898;SDS011;1459;50.864;6.438;2022-09-09T12:50:10;2.83;;;1.13;;
2898;SDS011;1459;50.864;6.438;2022-09-09T12:52:41;3.72;;;1.05;;
2898;SDS011;1459;50.864;6.438;2022-09-09T12:55:15;2.65;;;1.50;;
2898;SDS011;1459;50.864;6.438;2022-09-09T12:57:44;4.93;;;1.38;;
2898;SDS011;1459;50.864;6.438;2022-09-09T13:00:13;4.68;;;1.70;;
2898;SDS011;1459;50.864;6.438;2022-09-09T13:02:47;5.30;;;1.30;;
2898;SDS011;1459;50.864;6.438;2022-09-09T13:05:17;2.40;;;1.10;;
2898;SDS011;1459;50.864;6.438;2022-09-09T13:07:45;2.85;;;1.15;;
2898;SDS011;1459;50.864;6.438;2022-09-09T13:10:13;2.50;;;1.23;;
2898;SDS011;1459;50.864;6.438;2022-09-09T13:12:46;3.75;;;1.23;;
2898;SDS011;1459;50.864;6.438;2022-09-09T13:15:16;4.00;;;1.88;;
2898;SDS011;1459;50.864;6.438;2022-09-09T13:17:50;2.10;;;0.90;;
2898;SDS011;1459;50.864;6.438;2022-09-09T13:20:20;4.97;;;1.23;;
2898;SDS011;1459;50.864;6.438;2022-09-09T13:22:48;4.18;;;1.23;;
2898;SDS011;1459;50.864;6.438;2022-09-09T13:25:18;2.95;;;1.60;;
2898;SDS011;1459;50.864;6.438;2022-09-09T13:27:55;2.95;;;1.42;;
2898;SDS011;1459;50.864;6.438;2022-09-09T13:30:25;3.80;;;1.00;;
2898;SDS011;1459;50.864;6.438;2022-09-09T13:33:01;3.17;;;1.00;;
2898;SDS011;1459;50.864;6.438;2022-09-09T13:35:48;3.55;;;1.25;;
2898;SDS011;1459;50.864;6.438;2022-09-09T13:38:18;5.35;;;1.30;;
2898;SDS011;1459;50.864;6.438;2022-09-09T13:40:54;4.13;;;1.17;;
2898;SDS011;1459;50.864;6.438;2022-09-09T13:43:27;2.25;;;1.10;;
2898;SDS011;1459;50.864;6.438;2022-09-09T13:45:55;2.42;;;1.70;;
2898;SDS011;1459;50.864;6.438;2022-09-09T13:48:25;3.08;;;1.10;;
2898;SDS011;1459;50.864;6.438;2022-09-09T13:50:56;6.03;;;1.10;;
2898;SDS011;1459;50.864;6.438;2022-09-09T13:53:25;5.72;;;1.13;;
2898;SDS011;1459;50.864;6.438;2022-09-09T13:55:52;2.80;;;1.20;;
2898;SDS011;1459;50.864;6.438;2022-09-09T13:58:22;2.08;;;1.05;;
2898;SDS011;1459;50.864;6.438;2022-09-09T14:00:50;2.40;;;1.75;;
2898;SDS011;1459;50.864;6.438;2022-09-09T14:03:18;3.45;;;0.85;;
2898;SDS011;1459;50.864;6.438;2022-09-09T14:05:47;2.35;;;0.80;;
2898;SDS011;1459;50.864;6.438;2022-09-09T14:08:20;2.33;;;0.80;;
2898;SDS011;1459;50.864;6.438;2022-09-09T14:10:50;5.50;;;1.52;;
2898;SDS011;1459;50.864;6.438;2022-09-09T14:13:17;4.95;;;1.38;;
2898;SDS011;1459;50.864;6.438;2022-09-09T14:15:47;2.00;;;1.00;;
2898;SDS011;1459;50.864;6.438;2022-09-09T14:18:14;3.15;;;1.25;;
2898;SDS011;1459;50.864;6.438;2022-09-09T14:20:41;2.75;;;1.10;;
2898;SDS011;1459;50.864;6.438;2022-09-09T14:23:11;1.90;;;1.20;;
2898;SDS011;1459;50.864;6.438;2022-09-09T14:25:40;5.15;;;1.45;;
2898;SDS011;1459;50.864;6.438;2022-09-09T14:28:09;3.60;;;1.15;;
2898;SDS011;1459;50.864;6.438;2022-09-09T14:30:37;4.50;;;1.10;;
2898;SDS011;1459;50.864;6.438;2022-09-09T14:33:06;2.15;;;0.95;;
2898;SDS011;1459;50.864;6.438;2022-09-09T14:35:35;2.95;;;1.40;;
2898;SDS011;1459;50.864;6.438;2022-09-09T14:38:06;4.85;;;1.35;;
2898;SDS011;1459;50.864;6.438;2022-09-09T14:40:35;5.68;;;1.40;;
2898;SDS011;1459;50.864;6.438;2022-09-09T14:43:03;3.63;;;1.23;;
2898;SDS011;1459;50.864;6.438;2022-09-09T14:45:31;3.85;;;1.55;;
2898;SDS011;1459;50.864;6.438;2022-09-09T14:47:58;3.42;;;1.70;;
2898;SDS011;1459;50.864;6.438;2022-09-09T14:50:26;3.58;;;1.38;;
2898;SDS011;1459;50.864;6.438;2022-09-09T14:52:53;7.43;;;1.58;;
2898;SDS011;1459;50.864;6.438;2022-09-09T14:55:20;7.03;;;1.50;;
2898;SDS011;1459;50.864;6.438;2022-09-09T14:57:49;1.58;;;1.02;;
2898;SDS011;1459;50.864;6.438;2022-09-09T15:00:16;3.20;;;0.95;;
2898;SDS011;1459;50.864;6.438;2022-09-09T15:02:43;2.03;;;1.20;;
2898;SDS011;1459;50.864;6.438;2022-09-09T15:05:10;5.80;;;1.55;;
2898;SDS011;1459;50.864;6.438;2022-09-09T15:07:37;2.30;;;1.58;;
2898;SDS011;1459;50.864;6.438;2022-09-09T15:10:05;5.10;;;1.10;;
2898;SDS011;1459;50.864;6.438;2022-09-09T15:12:32;2.33;;;1.00;;
2898;SDS011;1459;50.864;6.438;2022-09-09T15:15:01;2.63;;;1.25;;
2898;SDS011;1459;50.864;6.438;2022-09-09T15:17:29;2.67;;;0.95;;
2898;SDS011;1459;50.864;6.438;2022-09-09T15:19:56;1.73;;;1.00;;
2898;SDS011;1459;50.864;6.438;2022-09-09T15:22:23;4.25;;;1.67;;
2898;SDS011;1459;50.864;6.438;2022-09-09T15:24:51;2.53;;;1.00;;
2898;SDS011;1459;50.864;6.438;2022-09-09T15:27:18;1.87;;;1.00;;
2898;SDS011;1459;50.864;6.438;2022-09-09T15:29:45;1.37;;;0.90;;
2898;SDS011;1459;50.864;6.438;2022-09-09T15:32:14;2.33;;;1.00;;
2898;SDS011;1459;50.864;6.438;2022-09-09T15:34:41;3.93;;;0.83;;
2898;SDS011;1459;50.864;6.438;2022-09-09T15:37:09;2.33;;;0.90;;
2898;SDS011;1459;50.864;6.438;2022-09-09T15:39:38;2.50;;;1.00;;
2898;SDS011;1459;50.864;6.438;2022-09-09T15:42:05;1.60;;;0.90;;
2898;SDS011;1459;50.864;6.438;2022-09-09T15:44:38;3.73;;;0.67;;
2898;SDS011;1459;50.864;6.438;2022-09-09T15:47:05;3.10;;;1.17;;
2898;SDS011;1459;50.864;6.438;2022-09-09T15:49:33;1.53;;;0.90;;
2898;SDS011;1459;50.864;6.438;2022-09-09T15:52:01;3.83;;;0.97;;
2898;SDS011;1459;50.864;6.438;2022-09-09T15:54:30;2.40;;;1.17;;